SondeTracker

Meteorological Radiosondes Database

Operations

Sounding was ended - last measurement: 2022-12-06 00:30:58z

MAP
About Radiosonde

Number: T3230788

Launch Site: Confins (BR)

Type: RS41-SGP

AUX: NO

Frequency: 404.000 MHz

Max Speed: 117 km/h at 13978 m

Average Speed: 85.78 km/h

Max Altitude: 17831 m

Average Ascent Speed: 7.23 m/s

Average Descent Speed: 5.52 m/s

Status: UNKNOWN

Status Changes
Launch Site Type AUX Frequency Status Finder Landing Point Description Changes made by
APRS Statistics

Received Frames: 37

First Frame [UTC]: 2022-12-06 00:03:40z

Last Frame [UTC]: 2022-12-06 00:30:58z

Receivers: PY4CCL-11

Flight Time: 00:27:18 h

Distance From First Measurement: 32.82 km

Nearest City: Sete Lagoas (BR) [30.43 km]

Nearest Hunter: PU4LSB [64.22 km]

Ground Altitude: 689 m

Distance from QTH: 0.00 km

APRS Data
Receiver Number Date/Time [UTC] φ λ Course [°] Speed [km/h] Altitude [m] Description
PY4CCL-11T32307882022-12-06 00:30:58-19.2359-44.0863177211501Clb=-7.8m/s p=232.0hPa t=-46.7C h=69.5% 404.000MHz Type=RS41-SGP rdzTTGOsonde
PY4CCL-11T32307882022-12-06 00:30:38-19.2395-44.0874178011659Clb=-9.5m/s p=226.5hPa t=-48.1C h=68.2% 404.000MHz Type=RS41-SGP rdzTTGOsonde
PY4CCL-11T32307882022-12-06 00:28:52-19.2599-44.0956188712290Clb=-4.4m/s p=205.5hPa t=-53.6C h=62.4% 404.000MHz Type=RS41-SGP rdzTTGOsonde
PY4CCL-11T32307882022-12-06 00:27:34-19.2769-44.099499612699Clb=-8.8m/s p=192.8hPa t=-57.2C h=61.3% 404.000MHz Type=RS41-SGP rdzTTGOsonde
PY4CCL-11T32307882022-12-06 00:27:12-19.2822-44.0999810212869Clb=-7.3m/s p=187.7hPa t=-58.7C h=59.4% 404.000MHz Type=RS41-SGP rdzTTGOsonde
PY4CCL-11T32307882022-12-06 00:26:30-19.2923-44.1019149613132Clb=-5.6m/s p=180.0hPa t=-60.9C h=60.4% 404.000MHz Type=RS41-SGP rdzTTGOsonde
PY4CCL-11T32307882022-12-06 00:26:10-19.297-44.103159413250Clb=-5.8m/s p=176.6hPa t=-61.9C h=61.6% 404.000MHz Type=RS41-SGP rdzTTGOsonde
PY4CCL-11T32307882022-12-06 00:25:50-19.3016-44.1044179613358Clb=-5.4m/s p=173.6hPa t=-62.9C h=61.8% 404.000MHz Type=RS41-SGP rdzTTGOsonde
PY4CCL-11T32307882022-12-06 00:25:30-19.3064-44.10571610413474Clb=-6.7m/s p=170.5hPa t=-63.3C h=57.7% 404.000MHz Type=RS41-SGP rdzTTGOsonde
PY4CCL-11T32307882022-12-06 00:24:28-19.3231-44.1081411113860Clb=-6.3m/s p=160.1hPa t=-65.9C h=64.1% 404.000MHz Type=RS41-SGP rdzTTGOsonde
PY4CCL-11T32307882022-12-06 00:24:08-19.3288-44.1083011713978Clb=-5.9m/s p=157.0hPa t=-66.7C h=62.7% 404.000MHz Type=RS41-SGP rdzTTGOsonde
PY4CCL-11T32307882022-12-06 00:23:48-19.3345-44.107935611514093Clb=-5.8m/s p=154.1hPa t=-67.1C h=57.0% 404.000MHz Type=RS41-SGP rdzTTGOsonde
PY4CCL-11T32307882022-12-06 00:22:46-19.3504-44.10423439114447Clb=-6.0m/s p=145.3hPa t=-69.0C h=47.0% 404.000MHz Type=RS41-SGP rdzTTGOsonde
PY4CCL-11T32307882022-12-06 00:22:26-19.3545-44.10283428314561Clb=-5.8m/s p=142.5hPa t=-69.9C h=48.0% 404.000MHz Type=RS41-SGP rdzTTGOsonde
PY4CCL-11T32307882022-12-06 00:21:44-19.3625-44.09963397614807Clb=-5.6m/s p=136.8hPa t=-72.0C h=46.2% 404.000MHz Type=RS41-SGP rdzTTGOsonde
PY4CCL-11T32307882022-12-06 00:20:42-19.3731-44.09543457615176Clb=-5.8m/s p=128.5hPa t=-75.1C h=37.2% 404.000MHz Type=RS41-SGP rdzTTGOsonde
PY4CCL-11T32307882022-12-06 00:20:22-19.3767-44.09423457815292Clb=-5.8m/s p=125.9hPa t=-75.5C h=36.4% 404.000MHz Type=RS41-SGP rdzTTGOsonde
PY4CCL-11T32307882022-12-06 00:19:40-19.3842-44.093228015541Clb=-5.9m/s p=120.7hPa t=-75.9C h=28.4% 404.000MHz Type=RS41-SGP rdzTTGOsonde
PY4CCL-11T32307882022-12-06 00:19:20-19.3872-44.08723187415664Clb=-5.6m/s p=118.2hPa t=-75.8C h=25.3% 404.000MHz Type=RS41-SGP rdzTTGOsonde
PY4CCL-11T32307882022-12-06 00:18:38-19.3929-44.08133158015922Clb=-6.6m/s p=113.0hPa t=-75.6C h=19.0% 404.000MHz Type=RS41-SGP rdzTTGOsonde
PY4CCL-11T32307882022-12-06 00:18:18-19.3956-44.07813108316046Clb=-6.2m/s p=110.6hPa t=-76.1C h=18.6% 404.000MHz Type=RS41-SGP rdzTTGOsonde
PY4CCL-11T32307882022-12-06 00:17:58-19.398-44.07483087416171Clb=-6.8m/s p=108.3hPa t=-77.1C h=19.0% 404.000MHz Type=RS41-SGP rdzTTGOsonde
PY4CCL-11T32307882022-12-06 00:17:16-19.4036-44.06843178316439Clb=-6.6m/s p=103.4hPa t=-77.1C h=18.5% 404.000MHz Type=RS41-SGP rdzTTGOsonde
PY4CCL-11T32307882022-12-06 00:16:34-19.4097-44.06083088916710Clb=-6.6m/s p=98.7hPa t=-75.6C h=16.0% 404.000MHz Type=RS41-SGP rdzTTGOsonde
PY4CCL-11T32307882022-12-06 00:16:12-19.4126-44.05673058516859Clb=-6.5m/s p=96.2hPa t=-75.2C h=14.9% 404.000MHz Type=RS41-SGP rdzTTGOsonde
PY4CCL-11T32307882022-12-06 00:14:46-19.4216-44.04273007217458Clb=-7.5m/s p=86.9hPa t=-74.1C h=13.6% 404.000MHz Type=RS41-SGP rdzTTGOsonde
PY4CCL-11T32307882022-12-06 00:14:26-19.423-44.03952956717601Clb=-7.5m/s p=84.8hPa t=-73.4C h=12.8% 404.000MHz Type=RS41-SGP rdzTTGOsonde
PY4CCL-11T32307882022-12-06 00:14:04-19.4245-44.0362986917757Clb=-7.4m/s p=82.5hPa t=-73.7C h=13.2% 404.000MHz Type=RS41-SGP rdzTTGOsonde
PY4CCL-11T32307882022-12-06 00:11:52-19.4332-44.01612915917831Clb=2.6m/s p=81.3hPa t=-73.9C h=18.3% 404.000MHz Type=RS41-SGP rdzTTGOsonde
PY4CCL-11T32307882022-12-06 00:11:18-19.4355-44.01052947017628Clb=8.2m/s p=84.2hPa t=-73.6C h=20.2% 404.000MHz Type=RS41-SGP rdzTTGOsonde
PY4CCL-11T32307882022-12-06 00:10:32-19.4385-44.00263017617339Clb=4.7m/s p=88.4hPa t=-75.2C h=24.3% 404.000MHz Type=RS41-SGP rdzTTGOsonde
PY4CCL-11T32307882022-12-06 00:09:50-19.4429-43.99583067617039Clb=6.4m/s p=93.0hPa t=-75.9C h=29.5% 404.000MHz Type=RS41-SGP rdzTTGOsonde
PY4CCL-11T32307882022-12-06 00:07:14-19.4624-43.96973188715903Clb=1.5m/s p=113.3hPa t=-75.3C h=48.5% 404.000MHz Type=RS41-SGP rdzTTGOsonde
PY4CCL-11T32307882022-12-06 00:06:46-19.4663-43.96583268515692Clb=5.1m/s p=117.4hPa t=-75.5C h=54.1% 404.000MHz Type=RS41-SGP rdzTTGOsonde
PY4CCL-11T32307882022-12-06 00:06:04-19.4733-43.96053379115364Clb=9.7m/s p=124.3hPa t=-75.5C h=56.7% 404.000MHz Type=RS41-SGP rdzTTGOsonde
PY4CCL-11T32307882022-12-06 00:04:22-19.4923-43.95383418714591Clb=5.1m/s p=141.7hPa t=-70.1C 404.000MHz Type=RS41-SGP rdzTTGOsonde
PY4CCL-11T32307882022-12-06 00:03:40-19.5019-43.950834911314273Clb=12.6m/s t=-68.2C 404.000MHz Type=RS41-SGP rdzTTGOsonde